^^
Saratoga-Weather Station Historical Data
Daily Summary for April 16, 2020 Units:  English    Metric   Both
Daily Weekly Monthly Yearly Custom
  High: Low: Average:
Temperature: 53.4 °F 39 °F 46 °F
Dew Point: 46.9 °F 37.8 °F 43.5 °F
Humidity: 96% 78% 91%
Wind Speed: 8.1mph 0mph 0.6mph
Wind Gust: 11mph - -
Wind- - SE
Pressure: 30.3 in 30.2 in -
Precipitation: 0 in    
Historical Graphs
 
 
Tabular Data for April 16, 2020
Time Temperature Dew Point Pressure Wind Wind Speed Wind Gust Humidity Rainfall Rate (Hourly) solar
00:02 50.7 °F 45.7 °F 30.2 in Calm   5 mph 83% 0 in 0 W/m2
00:07 50.7 °F 45.7 °F 30.2 in Calm     83% 0 in 0 W/m2
00:12 50.5 °F 45.5 °F 30.2 in WSW 2 mph 4 mph 83% 0 in 0 W/m2
00:17 50.7 °F 45.7 °F 30.2 in Calm     83% 0 in 0 W/m2
00:22 50.7 °F 45.7 °F 30.2 in West 4 mph 8 mph 83% 0 in 0 W/m2
00:27 50.5 °F 45.5 °F 30.2 in Calm   3 mph 83% 0 in 0 W/m2
00:32 50.7 °F 45.7 °F 30.2 in Calm   1 mph 83% 0 in 0 W/m2
00:37 50.7 °F 45.7 °F 30.2 in WSW 2 mph 6 mph 83% 0 in 0 W/m2
00:42 50.5 °F 45.5 °F 30.2 in Calm   1 mph 83% 0 in 0 W/m2
00:47 50.2 °F 45.5 °F 30.2 in SW 0.9 mph 5 mph 84% 0 in 0 W/m2
00:52 49.8 °F 45.5 °F 30.2 in Calm     85% 0 in 0 W/m2
00:57 49.6 °F 45.3 °F 30.2 in Calm   2 mph 85% 0 in 0 W/m2
01:02 49.5 °F 45.1 °F 30.2 in Calm     85% 0 in 0 W/m2
01:07 48.9 °F 45 °F 30.2 in Calm   3 mph 86% 0 in 0 W/m2
01:12 48.7 °F 44.8 °F 30.2 in Calm     86% 0 in 0 W/m2
01:17 48.7 °F 45 °F 30.2 in Calm   2 mph 87% 0 in 0 W/m2
01:22 48.6 °F 44.8 °F 30.2 in Calm     87% 0 in 0 W/m2
01:27 48.6 °F 44.8 °F 30.2 in South 2 mph 3 mph 87% 0 in 0 W/m2
01:32 48.4 °F 44.8 °F 30.2 in Calm   3 mph 87% 0 in 0 W/m2
01:37 48 °F 44.4 °F 30.2 in Calm   1 mph 87% 0 in 0 W/m2
01:42 47.8 °F 44.4 °F 30.2 in West 2.9 mph 4 mph 88% 0 in 0 W/m2
01:47 47.7 °F 44.1 °F 30.2 in Calm   2 mph 87% 0 in 0 W/m2
01:52 47.5 °F 44.1 °F 30.2 in SSW 0.9 mph 3 mph 88% 0 in 0 W/m2
01:57 47.5 °F 44.4 °F 30.2 in Calm   2 mph 89% 0 in 0 W/m2
02:02 47.7 °F 44.6 °F 30.2 in Calm   1 mph 89% 0 in 0 W/m2
02:07 47.5 °F 44.1 °F 30.2 in Calm     88% 0 in 0 W/m2
02:12 46.9 °F 43.5 °F 30.2 in Calm   1 mph 88% 0 in 0 W/m2
02:17 46.8 °F 43.3 °F 30.2 in Calm   1 mph 88% 0 in 0 W/m2
02:22 46.4 °F 43.3 °F 30.2 in Calm     89% 0 in 0 W/m2
02:27 46.2 °F 43.5 °F 30.2 in Calm   1 mph 90% 0 in 0 W/m2
02:32 46 °F 43.3 °F 30.3 in WSW 2 mph 2 mph 90% 0 in 0 W/m2
02:37 46 °F 43.5 °F 30.3 in Calm   2 mph 91% 0 in 0 W/m2
02:42 46.4 °F 44.2 °F 30.3 in Calm     92% 0 in 0 W/m2
02:47 46.8 °F 44.6 °F 30.3 in Calm     92% 0 in 0 W/m2
02:52 47.1 °F 45 °F 30.3 in Calm   2 mph 92% 0 in 0 W/m2
02:57 47.5 °F 45 °F 30.3 in Calm   2 mph 91% 0 in 0 W/m2
03:02 47.7 °F 45.1 °F 30.3 in Calm   1 mph 91% 0 in 0 W/m2
03:07 47.7 °F 45.1 °F 30.3 in Calm   3 mph 91% 0 in 0 W/m2
03:12 47.7 °F 45 °F 30.3 in SSE 2 mph 2 mph 90% 0 in 0 W/m2
03:17 47.7 °F 45 °F 30.3 in Calm     90% 0 in 0 W/m2
03:22 47.7 °F 45 °F 30.3 in Calm     90% 0 in 0 W/m2
03:27 47.7 °F 45 °F 30.3 in Calm     90% 0 in 0 W/m2
03:32 47.5 °F 44.8 °F 30.3 in Calm   2 mph 90% 0 in 0 W/m2
03:37 47.5 °F 44.8 °F 30.3 in Calm     90% 0 in 0 W/m2
03:42 47.5 °F 45 °F 30.3 in Calm   2 mph 91% 0 in 0 W/m2
03:47 47.5 °F 45 °F 30.3 in Calm     91% 0 in 0 W/m2
03:52 47.5 °F 45 °F 30.3 in Calm   2 mph 91% 0 in 0 W/m2
03:57 47.5 °F 45 °F 30.3 in Calm     91% 0 in 0 W/m2
04:02 47.5 °F 45 °F 30.3 in Calm     91% 0 in 0 W/m2
04:07 47.5 °F 45 °F 30.3 in Calm   1 mph 91% 0 in 0 W/m2
04:12 47.5 °F 45 °F 30.3 in Calm   1 mph 91% 0 in 0 W/m2
04:17 47.5 °F 45 °F 30.3 in Calm     91% 0 in 0 W/m2
04:22 47.5 °F 45 °F 30.3 in Calm   2 mph 91% 0 in 0 W/m2
04:27 47.7 °F 45.5 °F 30.3 in Calm     92% 0 in 0 W/m2
04:32 47.7 °F 45.5 °F 30.3 in Calm   2 mph 92% 0 in 0 W/m2
04:37 47.7 °F 45.5 °F 30.3 in Calm     92% 0 in 0 W/m2
04:42 47.7 °F 45.5 °F 30.3 in Calm     92% 0 in 0 W/m2
04:47 47.7 °F 45.5 °F 30.3 in Calm     92% 0 in 0 W/m2
04:52 47.5 °F 45.3 °F 30.3 in Calm     92% 0 in 0 W/m2
04:57 47.5 °F 45 °F 30.3 in Calm     91% 0 in 0 W/m2
05:03 47.3 °F 44.8 °F 30.3 in Calm     91% 0 in 0 W/m2
05:08 47.1 °F 44.6 °F 30.3 in Calm     91% 0 in 0 W/m2
05:13 46.9 °F 44.8 °F 30.3 in Calm     92% 0 in 0 W/m2
05:18 46.9 °F 44.8 °F 30.3 in Calm     92% 0 in 0 W/m2
05:23 46.9 °F 44.8 °F 30.3 in Calm     92% 0 in 0 W/m2
05:28 46.9 °F 44.8 °F 30.3 in Calm     92% 0 in 0 W/m2
05:33 46.9 °F 44.8 °F 30.3 in Calm     92% 0 in 0 W/m2
05:38 46.8 °F 44.6 °F 30.3 in Calm     92% 0 in 0 W/m2
05:43 46.8 °F 44.6 °F 30.3 in Calm   2 mph 92% 0 in 0 W/m2
05:48 46.6 °F 44.4 °F 30.3 in Calm   1 mph 92% 0 in 0 W/m2
05:53 46.6 °F 44.4 °F 30.3 in Calm   2 mph 92% 0 in 0 W/m2
05:58 46.6 °F 44.4 °F 30.3 in Calm     92% 0 in 0 W/m2
06:03 46.2 °F 44.1 °F 30.3 in Calm     92% 0 in 0 W/m2
06:08 46 °F 43.9 °F 30.3 in Calm     92% 0 in 0 W/m2
06:13 45.9 °F 43.7 °F 30.3 in Calm     92% 0 in 0 W/m2
06:18 45.7 °F 43.5 °F 30.3 in Calm     92% 0 in 0 W/m2
06:23 45.5 °F 43.5 °F 30.3 in Calm     93% 0 in 0 W/m2
06:28 45.1 °F 43.2 °F 30.3 in Calm     93% 0 in 0 W/m2
06:34 45 °F 42.8 °F 30.3 in SSW 0.9 mph 2 mph 92% 0 in 0 W/m2
06:39 44.8 °F 42.8 °F 30.3 in Calm     93% 0 in 0 W/m2
06:44 44.6 °F 42.6 °F 30.3 in Calm     93% 0 in 0 W/m2
06:49 44.4 °F 42.4 °F 30.3 in Calm     93% 0 in 0 W/m2
06:54 44.4 °F 42.4 °F 30.3 in Calm     93% 0 in 0 W/m2
06:59 44.4 °F 42.8 °F 30.3 in Calm     94% 0 in 0 W/m2
07:04 44.4 °F 42.8 °F 30.3 in Calm     94% 0 in 0 W/m2
07:09 44.4 °F 42.8 °F 30.3 in Calm     94% 0 in 0 W/m2
07:14 44.4 °F 42.8 °F 30.3 in Calm     94% 0 in 0 W/m2
07:19 44.4 °F 42.8 °F 30.3 in Calm   1 mph 94% 0 in 0 W/m2
07:24 44.2 °F 42.6 °F 30.3 in Calm     94% 0 in 0 W/m2
07:29 44.1 °F 42.4 °F 30.3 in Calm   1 mph 94% 0 in 0 W/m2
07:34 43.9 °F 42.3 °F 30.3 in Calm     94% 0 in 0 W/m2
07:39 43.7 °F 42.1 °F 30.3 in Calm     94% 0 in 0 W/m2
07:44 43.5 °F 41.9 °F 30.3 in Calm     94% 0 in 0 W/m2
07:49 43.3 °F 41.7 °F 30.3 in Calm     94% 0 in 0 W/m2
07:54 43.2 °F 41.5 °F 30.3 in Calm     94% 0 in 0 W/m2
07:59 43.2 °F 41.5 °F 30.3 in Calm     94% 0 in 0 W/m2
08:04 43 °F 41.4 °F 30.3 in Calm     94% 0 in 0 W/m2
08:09 42.8 °F 41.2 °F 30.3 in Calm     94% 0 in 0 W/m2
08:14 42.6 °F 41.4 °F 30.3 in Calm     95% 0 in 0 W/m2
08:19 42.6 °F 41.4 °F 30.3 in Calm     95% 0 in 0 W/m2
08:24 42.6 °F 41.4 °F 30.3 in Calm     95% 0 in 0 W/m2
08:29 42.4 °F 41.2 °F 30.3 in Calm     95% 0 in 5 W/m2
08:34 42.4 °F 41.2 °F 30.3 in Calm     95% 0 in 11 W/m2
08:39 42.6 °F 41.4 °F 30.3 in Calm     95% 0 in 14 W/m2
08:44 43 °F 41.7 °F 30.3 in Calm     95% 0 in 18 W/m2
08:49 43 °F 41.9 °F 30.3 in Calm     96% 0 in 19 W/m2
08:54 43 °F 41.7 °F 30.3 in Calm     95% 0 in 28 W/m2
08:59 43 °F 41.7 °F 30.3 in Calm     95% 0 in 32 W/m2
09:04 43 °F 41.9 °F 30.3 in South 0.9 mph 2 mph 96% 0 in 18 W/m2
09:09 43.2 °F 42.1 °F 30.3 in Calm   3 mph 96% 0 in 16 W/m2
09:14 43.2 °F 41.9 °F 30.3 in Calm     95% 0 in 16 W/m2
09:20 43.2 °F 41.9 °F 30.3 in Calm     95% 0 in 18 W/m2
09:25 43 °F 41.7 °F 30.3 in Calm     95% 0 in 18 W/m2
09:30 43 °F 41.7 °F 30.3 in Calm     95% 0 in 19 W/m2
09:35 43 °F 41.7 °F 30.3 in Calm     95% 0 in 19 W/m2
09:40 43 °F 41.7 °F 30.3 in Calm     95% 0 in 21 W/m2
09:45 42.8 °F 41.5 °F 30.3 in Calm     95% 0 in 21 W/m2
09:50 42.8 °F 41.5 °F 30.3 in Calm     95% 0 in 21 W/m2
09:55 42.6 °F 41.4 °F 30.3 in Calm     95% 0 in 23 W/m2
10:00 42.6 °F 41.4 °F 30.3 in Calm     95% 0 in 25 W/m2
10:05 42.6 °F 41.4 °F 30.3 in Calm     95% 0 in 25 W/m2
10:10 42.8 °F 41.5 °F 30.3 in Calm     95% 0 in 25 W/m2
10:15 43 °F 41.9 °F 30.3 in Calm     96% 0 in 26 W/m2
10:20 43 °F 41.9 °F 30.3 in Calm     96% 0 in 28 W/m2
10:25 43.2 °F 42.1 °F 30.3 in Calm     96% 0 in 26 W/m2
10:30 43.2 °F 42.1 °F 30.3 in Calm     96% 0 in 33 W/m2
10:35 43.2 °F 42.1 °F 30.3 in Calm     96% 0 in 35 W/m2
10:40 43.3 °F 42.3 °F 30.3 in Calm     96% 0 in 30 W/m2
10:45 43.3 °F 42.3 °F 30.3 in Calm     96% 0 in 35 W/m2
10:51 43.5 °F 42.4 °F 30.3 in Calm     96% 0 in 39 W/m2
10:56 43.7 °F 42.6 °F 30.3 in Calm     96% 0 in 30 W/m2
11:01 43.9 °F 42.8 °F 30.3 in Calm     96% 0 in 30 W/m2
11:06 44.1 °F 43 °F 30.3 in Calm     96% 0 in 30 W/m2
11:11 44.1 °F 43 °F 30.3 in Calm     96% 0 in 30 W/m2
11:16 44.2 °F 43.2 °F 30.3 in Calm     96% 0 in 32 W/m2
11:21 44.4 °F 43.3 °F 30.3 in Calm     96% 0 in 33 W/m2
11:26 44.8 °F 43.7 °F 30.3 in Calm     96% 0 in 30 W/m2
11:31 45.1 °F 44.1 °F 30.3 in Calm     96% 0 in 30 W/m2
11:36 45.7 °F 44.6 °F 30.3 in Calm   1 mph 96% 0 in 32 W/m2
11:41 46 °F 45 °F 30.3 in Calm   2 mph 96% 0 in 33 W/m2
11:46 46.6 °F 45.1 °F 30.3 in NE 2 mph 3 mph 95% 0 in 33 W/m2
11:51 47.1 °F 45.5 °F 30.3 in SE 0.9 mph 3 mph 94% 0 in 35 W/m2
11:56 47.5 °F 45.5 °F 30.3 in East 2 mph 4 mph 93% 0 in 33 W/m2
12:01 47.8 °F 45.7 °F 30.3 in Calm   2 mph 92% 0 in 32 W/m2
12:06 48 °F 45.9 °F 30.3 in East 2.9 mph 5 mph 92% 0 in 30 W/m2
12:11 48.6 °F 46 °F 30.3 in ENE 4 mph 5 mph 91% 0 in 32 W/m2
12:16 48.9 °F 46 °F 30.3 in Calm   2 mph 90% 0 in 35 W/m2
12:21 49.1 °F 46 °F 30.3 in East 2.9 mph 5 mph 89% 0 in 35 W/m2
12:26 49.5 °F 46 °F 30.3 in East 2 mph 4 mph 88% 0 in 30 W/m2
12:31 49.6 °F 46.2 °F 30.3 in East 0.9 mph 2 mph 88% 0 in 30 W/m2
12:36 49.8 °F 46 °F 30.3 in East 4 mph 4 mph 87% 0 in 30 W/m2
12:41 50 °F 46.2 °F 30.3 in East 2 mph 4 mph 87% 0 in 30 W/m2
12:46 50.2 °F 46.2 °F 30.3 in East 2.9 mph 4 mph 86% 0 in 33 W/m2
12:51 50.2 °F 46.2 °F 30.3 in ESE 2 mph 2 mph 86% 0 in 30 W/m2
12:56 50.2 °F 46.2 °F 30.3 in East 2 mph 4 mph 86% 0 in 32 W/m2
13:01 50.4 °F 46.4 °F 30.3 in NE 2 mph 5 mph 86% 0 in 33 W/m2
13:06 50.5 °F 46.2 °F 30.3 in Calm   4 mph 85% 0 in 35 W/m2
13:11 50.7 °F 46.4 °F 30.3 in ESE 0.9 mph 6 mph 85% 0 in 32 W/m2
13:17 51.3 °F 46.6 °F 30.3 in SE 4 mph 6 mph 84% 0 in 35 W/m2
13:22 51.6 °F 46.6 °F 30.3 in SE 2 mph 5 mph 83% 0 in 30 W/m2
13:27 51.8 °F 46.4 °F 30.3 in East 0.9 mph 4 mph 82% 0 in 35 W/m2
13:32 52 °F 46.6 °F 30.3 in East 2.9 mph 3 mph 82% 0 in 37 W/m2
13:37 52 °F 46.6 °F 30.3 in ESE 2 mph 6 mph 82% 0 in 37 W/m2
13:42 52 °F 46.6 °F 30.3 in East 0.9 mph 8 mph 82% 0 in 30 W/m2
13:47 52.2 °F 46.8 °F 30.3 in Calm   4 mph 82% 0 in 30 W/m2
13:52 52.2 °F 46.6 °F 30.3 in Calm   8 mph 81% 0 in 32 W/m2
13:57 52.3 °F 46.8 °F 30.3 in SE 2 mph 4 mph 81% 0 in 37 W/m2
14:02 52.3 °F 46.8 °F 30.3 in ESE 4 mph 4 mph 81% 0 in 28 W/m2
14:07 52.2 °F 46.6 °F 30.3 in ESE 4 mph 4 mph 81% 0 in 30 W/m2
14:12 52.2 °F 46.6 °F 30.2 in East 2 mph 7 mph 81% 0 in 32 W/m2
14:17 52.2 °F 46.6 °F 30.2 in East 0.9 mph 7 mph 81% 0 in 33 W/m2
14:22 52.2 °F 46.6 °F 30.2 in East 2 mph 7 mph 81% 0 in 33 W/m2
14:27 52.3 °F 46.8 °F 30.2 in ESE 4 mph 7 mph 81% 0 in 37 W/m2
14:32 52.5 °F 46.9 °F 30.2 in East 2.9 mph 8 mph 81% 0 in 30 W/m2
14:37 52.5 °F 46.6 °F 30.2 in ESE 4.9 mph 9 mph 80% 0 in 28 W/m2
14:42 52.5 °F 46.6 °F 30.2 in East 4 mph 9 mph 80% 0 in 26 W/m2
14:47 52.9 °F 46.9 °F 30.2 in ESE 6.9 mph 10 mph 80% 0 in 25 W/m2
14:52 53.2 °F 46.9 °F 30.2 in ESE 8.1 mph 11 mph 79% 0 in 25 W/m2
14:57 53.2 °F 46.9 °F 30.2 in SE 2.9 mph 10 mph 79% 0 in 25 W/m2
15:02 53.4 °F 46.8 °F 30.2 in SE 8.1 mph 11 mph 78% 0 in 23 W/m2
15:07 53.4 °F 46.8 °F 30.2 in ESE 2.9 mph 7 mph 78% 0 in 23 W/m2
15:12 53.2 °F 46.6 °F 30.2 in East 2 mph 8 mph 78% 0 in 21 W/m2
15:17 53.2 °F 46.6 °F 30.2 in ESE 0.9 mph 6 mph 78% 0 in 21 W/m2
15:22 53.2 °F 46.9 °F 30.2 in ESE 2 mph 6 mph 79% 0 in 21 W/m2
15:27 52.9 °F 46.6 °F 30.2 in Calm   3 mph 79% 0 in 21 W/m2
15:32 52.5 °F 46.6 °F 30.2 in Calm   6 mph 80% 0 in 21 W/m2
15:37 52 °F 46.4 °F 30.2 in Calm   1 mph 81% 0 in 19 W/m2
15:42 51.4 °F 45.9 °F 30.2 in ESE 4.9 mph 7 mph 81% 0 in 19 W/m2
15:47 51.1 °F 45.9 °F 30.2 in SE 2.9 mph 3 mph 82% 0 in 19 W/m2
15:52 50.5 °F 45.5 °F 30.2 in ESE 0.9 mph 8 mph 83% 0 in 18 W/m2
15:57 50.4 °F 45.7 °F 30.2 in Calm   3 mph 84% 0 in 18 W/m2
16:02 50.4 °F 45.7 °F 30.2 in SE 2 mph 6 mph 84% 0 in 18 W/m2
16:07 50.4 °F 45.7 °F 30.2 in SSE 4.9 mph 5 mph 84% 0 in 18 W/m2
16:12 50.2 °F 45.5 °F 30.2 in Calm   4 mph 84% 0 in 16 W/m2
16:17 49.8 °F 45.1 °F 30.2 in East 0.9 mph 4 mph 84% 0 in 16 W/m2
16:22 49.6 °F 45.3 °F 30.2 in SE 0.9 mph 1 mph 85% 0 in 14 W/m2
16:28 49.5 °F 45.1 °F 30.2 in Calm   4 mph 85% 0 in 14 W/m2
16:33 49.1 °F 44.8 °F 30.2 in Calm   2 mph 85% 0 in 12 W/m2
16:38 48.7 °F 44.8 °F 30.2 in Calm   3 mph 86% 0 in 12 W/m2
16:43 48.6 °F 44.6 °F 30.2 in Calm     86% 0 in 11 W/m2
16:48 48.4 °F 44.8 °F 30.2 in Calm     87% 0 in 9 W/m2
16:53 48 °F 44.4 °F 30.2 in Calm   1 mph 87% 0 in 7 W/m2
16:58 47.8 °F 44.4 °F 30.2 in Calm     88% 0 in 5 W/m2
17:03 47.7 °F 44.2 °F 30.2 in Calm     88% 0 in 5 W/m2
17:08 47.5 °F 44.1 °F 30.2 in Calm     88% 0 in 0 W/m2
17:13 47.3 °F 44.2 °F 30.2 in Calm     89% 0 in 0 W/m2
17:18 47.1 °F 44.1 °F 30.2 in Calm     89% 0 in 0 W/m2
17:23 46.9 °F 43.9 °F 30.2 in Calm     89% 0 in 0 W/m2
17:28 46.8 °F 43.7 °F 30.2 in Calm     89% 0 in 0 W/m2
17:33 46.6 °F 43.5 °F 30.2 in Calm     89% 0 in 0 W/m2
17:39 46.2 °F 43.5 °F 30.2 in Calm     90% 0 in 0 W/m2
17:44 46.2 °F 43.5 °F 30.2 in Calm     90% 0 in 0 W/m2
17:49 46 °F 43.5 °F 30.2 in Calm     91% 0 in 0 W/m2
17:54 45.9 °F 43.3 °F 30.2 in Calm     91% 0 in 0 W/m2
17:59 45.9 °F 43.3 °F 30.2 in Calm     91% 0 in 0 W/m2
18:04 45.7 °F 43.2 °F 30.2 in Calm     91% 0 in 0 W/m2
18:09 45.7 °F 43.5 °F 30.2 in Calm     92% 0 in 0 W/m2
18:14 45.5 °F 43.3 °F 30.2 in Calm     92% 0 in 0 W/m2
18:19 45.3 °F 43.2 °F 30.2 in Calm     92% 0 in 0 W/m2
18:24 45.3 °F 43.2 °F 30.2 in Calm     92% 0 in 0 W/m2
18:29 45.1 °F 43 °F 30.2 in Calm     92% 0 in 0 W/m2
18:34 45.1 °F 43 °F 30.2 in Calm     92% 0 in 0 W/m2
18:39 45 °F 42.8 °F 30.2 in Calm     92% 0 in 0 W/m2
18:44 44.8 °F 42.6 °F 30.2 in Calm     92% 0 in 0 W/m2
18:49 44.6 °F 42.4 °F 30.2 in Calm     92% 0 in 0 W/m2
18:54 44.4 °F 42.3 °F 30.2 in Calm     92% 0 in 0 W/m2
18:59 44.2 °F 42.3 °F 30.2 in Calm     93% 0 in 0 W/m2
19:04 44.2 °F 42.3 °F 30.2 in Calm     93% 0 in 0 W/m2
19:09 44.2 °F 42.3 °F 30.2 in Calm     93% 0 in 0 W/m2
19:14 44.2 °F 42.3 °F 30.2 in Calm     93% 0 in 0 W/m2
19:20 44.2 °F 42.3 °F 30.2 in Calm     93% 0 in 0 W/m2
19:25 44.1 °F 42.4 °F 30.2 in Calm   1 mph 94% 0 in 0 W/m2
19:30 44.1 °F 42.4 °F 30.2 in Calm     94% 0 in 0 W/m2
19:35 44.1 °F 42.4 °F 30.2 in Calm     94% 0 in 0 W/m2
19:40 44.1 °F 42.4 °F 30.2 in NE 5 mph 5 mph 94% 0 in 0 W/m2
19:45 43.9 °F 41.9 °F 30.2 in Calm     93% 0 in 0 W/m2
19:50 43.7 °F 42.1 °F 30.2 in Calm   4 mph 94% 0 in 0 W/m2
19:55 43.5 °F 41.9 °F 30.2 in Calm     94% 0 in 0 W/m2
20:00 43.3 °F 41.7 °F 30.2 in Calm     94% 0 in 0 W/m2
20:05 43.2 °F 41.5 °F 30.2 in Calm   1 mph 94% 0 in 0 W/m2
20:10 43.2 °F 41.5 °F 30.2 in Calm     94% 0 in 0 W/m2
20:15 43 °F 41.4 °F 30.2 in Calm     94% 0 in 0 W/m2
20:20 43 °F 41.4 °F 30.2 in Calm   3 mph 94% 0 in 0 W/m2
20:25 42.8 °F 41.2 °F 30.2 in Calm     94% 0 in 0 W/m2
20:30 42.6 °F 41 °F 30.2 in Calm   3 mph 94% 0 in 0 W/m2
20:35 42.6 °F 41 °F 30.2 in Calm     94% 0 in 0 W/m2
20:40 42.4 °F 40.8 °F 30.2 in SSW 2 mph 3 mph 94% 0 in 0 W/m2
20:45 42.4 °F 40.8 °F 30.2 in Calm     94% 0 in 0 W/m2
20:50 42.3 °F 40.6 °F 30.2 in Calm   3 mph 94% 0 in 0 W/m2
20:55 42.3 °F 40.6 °F 30.2 in Calm     94% 0 in 0 W/m2
21:00 42.3 °F 41 °F 30.2 in Calm   1 mph 95% 0 in 0 W/m2
21:05 42.1 °F 40.8 °F 30.2 in SW 0.9 mph 1 mph 95% 0 in 0 W/m2
21:10 42.1 °F 40.8 °F 30.2 in Calm     95% 0 in 0 W/m2
21:15 42.1 °F 40.8 °F 30.2 in Calm   1 mph 95% 0 in 0 W/m2
21:20 41.9 °F 40.6 °F 30.2 in Calm     95% 0 in 0 W/m2
21:25 41.7 °F 40.5 °F 30.2 in Calm   1 mph 95% 0 in 0 W/m2
21:30 41.7 °F 40.5 °F 30.2 in Calm     95% 0 in 0 W/m2
21:35 41.5 °F 40.3 °F 30.2 in Calm     95% 0 in 0 W/m2
21:40 41.5 °F 40.3 °F 30.2 in ENE 2 mph 2 mph 95% 0 in 0 W/m2
21:45 41.4 °F 40.1 °F 30.2 in Calm     95% 0 in 0 W/m2
21:50 41.4 °F 40.1 °F 30.2 in Calm     95% 0 in 0 W/m2
21:55 41.2 °F 39.9 °F 30.2 in Calm   4 mph 95% 0 in 0 W/m2
22:00 41.2 °F 39.9 °F 30.2 in Calm   5 mph 95% 0 in 0 W/m2
22:05 41 °F 39.7 °F 30.2 in Calm   1 mph 95% 0 in 0 W/m2
22:10 40.8 °F 39.6 °F 30.2 in Calm     95% 0 in 0 W/m2
22:15 40.6 °F 39.4 °F 30.2 in Calm     95% 0 in 0 W/m2
22:20 40.6 °F 39.4 °F 30.2 in Calm     95% 0 in 0 W/m2
22:25 40.5 °F 39.2 °F 30.2 in Calm     95% 0 in 0 W/m2
22:30 40.5 °F 39.2 °F 30.2 in Calm     95% 0 in 0 W/m2
22:35 40.3 °F 39 °F 30.2 in Calm     95% 0 in 0 W/m2
22:40 40.1 °F 38.8 °F 30.2 in Calm     95% 0 in 0 W/m2
22:45 39.9 °F 38.7 °F 30.2 in Calm     95% 0 in 0 W/m2
22:50 39.9 °F 38.7 °F 30.2 in Calm     95% 0 in 0 W/m2
22:55 39.7 °F 38.5 °F 30.2 in Calm     95% 0 in 0 W/m2
23:00 39.7 °F 38.5 °F 30.2 in Calm     95% 0 in 0 W/m2
23:05 39.6 °F 38.3 °F 30.2 in Calm     95% 0 in 0 W/m2
23:10 39.7 °F 38.7 °F 30.2 in Calm     96% 0 in 0 W/m2
23:15 39.7 °F 38.7 °F 30.2 in Calm     96% 0 in 0 W/m2
23:21 39.7 °F 38.7 °F 30.2 in Calm     96% 0 in 0 W/m2
23:26 39.7 °F 38.7 °F 30.2 in Calm     96% 0 in 0 W/m2
23:31 39.6 °F 38.5 °F 30.2 in Calm     96% 0 in 0 W/m2
23:36 39.6 °F 38.5 °F 30.2 in Calm     96% 0 in 0 W/m2
23:41 39.4 °F 38.3 °F 30.2 in Calm     96% 0 in 0 W/m2
23:46 39.2 °F 37.9 °F 30.2 in Calm     95% 0 in 0 W/m2
23:51 39 °F 37.8 °F 30.2 in Calm     95% 0 in 0 W/m2
23:56 39 °F 37.9 °F 30.2 in Calm     96% 0 in 0 W/m2
Juneau County Weather
Compliments of Weather Underground - 4 mb